Westmoreland, New York
Current Conditions -  °F | °C
As of 1:53 AM on Monday 24 Nov 2014 (Local Time) from KRME Reporting Station
Overcast Overcast  
Wind Chill: 44°   Ceiling: 8000
Heat Index: 48°   Visibility: 10mi
Dew Point: 38°   Wind: 8mph
Humidity: 68%   Direction: 100°E
Pressure: 29.78"   Gusts: NA
Location:  43.11°N, 75.4°W
Report Text: KRME 240653Z AUTO 10007KT 10SM BKN080 OVC095 09/03 A2978 RMK AO2 SLP084 T00890033
Loading
Personal Weather Stations






























Interactive Weather Map New forecast layout! Learn more

10-Day Weather Forecast

Advertisements
Track Severe Weather on mobile